Time;durP1;ratioP1;P1;durP2;ratioP2;P2;SDS_P1;SDS_P2;PMS_P1;PMS_P2;Temp;Humidity;BMP_temperature;BMP_pressure;BME280_temperature;BME280_humidity;BME280_pressure;Samples;Min_cycle;Max_cycle;Signal;HPM_P1;HPM_P2
2023/01/27 00:00:18;;;;;;;27.23;18.33;;;8.60;1.00;;;;;;5071943;28;20036;-61
2023/01/27 00:02:43;;;;;;;28.73;18.77;;;8.60;1.00;;;;;;5072343;28;20017;-61
2023/01/27 00:05:11;;;;;;;26.63;19.20;;;8.50;1.00;;;;;;5069319;28;20170;-61
2023/01/27 00:07:37;;;;;;;25.90;17.83;;;8.60;1.00;;;;;;5071143;28;20468;-61
2023/01/27 00:10:04;;;;;;;25.97;18.17;;;8.50;1.00;;;;;;5071977;28;20109;-61
2023/01/27 00:15:14;;;;;;;27.27;18.07;;;8.50;1.00;;;;;;5071719;28;20039;-60
2023/01/27 00:17:41;;;;;;;26.43;18.53;;;8.50;1.00;;;;;;5072100;28;20028;-60
2023/01/27 00:20:08;;;;;;;27.87;17.87;;;8.40;1.00;;;;;;5071952;28;20032;-60
2023/01/27 00:25:18;;;;;;;26.97;18.07;;;8.30;1.00;;;;;;5078736;28;20088;-60
2023/01/27 00:27:44;;;;;;;27.63;17.87;;;8.50;1.00;;;;;;5076389;28;20278;-60
2023/01/27 00:30:11;;;;;;;26.30;18.67;;;8.50;1.00;;;;;;5075892;28;20465;-60
2023/01/27 00:35:21;;;;;;;26.67;18.27;;;8.50;1.00;;;;;;5071098;28;20051;-61
2023/01/27 00:37:47;;;;;;;28.03;18.40;;;8.50;1.00;;;;;;5075806;28;20466;-61
2023/01/27 00:40:14;;;;;;;26.30;17.43;;;8.50;1.00;;;;;;5075610;28;20474;-65
2023/01/27 00:42:40;;;;;;;28.10;17.97;;;8.40;1.00;;;;;;5075711;28;20032;-60
2023/01/27 00:47:51;;;;;;;27.25;17.48;;;8.40;1.00;;;;;;5075546;28;20101;-61
2023/01/27 00:50:17;;;;;;;24.07;15.73;;;8.40;1.00;;;;;;5075215;28;20381;-61
2023/01/27 00:52:44;;;;;;;23.90;15.23;;;8.40;1.00;;;;;;5075596;28;20435;-61
2023/01/27 00:55:10;;;;;;;23.67;16.13;;;8.40;1.00;;;;;;5075631;28;20038;-62
2023/01/27 00:57:39;;;;;;;20.53;15.43;;;8.50;1.00;;;;;;5075560;28;20056;-61
2023/01/27 01:00:05;;;;;;;21.70;15.33;;;8.30;1.00;;;;;;5075592;28;20025;-61
2023/01/27 01:02:31;;;;;;;20.73;15.33;;;8.40;1.00;;;;;;5075104;28;20055;-61
2023/01/27 01:04:57;;;;;;;22.80;15.43;;;8.40;1.00;;;;;;5075064;28;20028;-61
2023/01/27 01:07:22;;;;;;;21.50;14.20;;;8.50;1.00;;;;;;5075128;28;20031;-61
2023/01/27 01:09:48;;;;;;;21.90;14.07;;;8.40;1.00;;;;;;5075234;28;20035;-61
2023/01/27 01:12:14;;;;;;;24.13;15.00;;;8.40;1.00;;;;;;5075304;28;20024;-60
2023/01/27 01:14:39;;;;;;;23.47;16.03;;;8.50;1.00;;;;;;5074934;28;20096;-61
2023/01/27 01:17:05;;;;;;;19.83;13.90;;;8.50;1.00;;;;;;5074682;28;20036;-60
2023/01/27 01:19:30;;;;;;;20.87;14.97;;;8.60;1.00;;;;;;5075066;28;20017;-60
2023/01/27 01:21:56;;;;;;;21.27;14.17;;;8.60;1.00;;;;;;5075017;28;20023;-60
2023/01/27 01:24:22;;;;;;;21.27;14.13;;;8.60;1.00;;;;;;5074820;28;20024;-60
2023/01/27 01:26:47;;;;;;;22.60;14.23;;;8.50;1.00;;;;;;5074474;28;20051;-60
2023/01/27 01:29:13;;;;;;;21.03;14.40;;;8.60;1.00;;;;;;5062202;28;20032;-60
2023/01/27 01:31:39;;;;;;;20.47;14.40;;;8.60;1.00;;;;;;5074705;28;20393;-62
2023/01/27 01:34:04;;;;;;;19.27;12.07;;;8.60;1.00;;;;;;5074216;28;20017;-61
2023/01/27 01:36:30;;;;;;;19.40;12.87;;;8.60;1.00;;;;;;5074066;28;20499;-61
2023/01/27 01:38:56;;;;;;;19.10;12.00;;;8.60;1.00;;;;;;5074633;28;20032;-61
2023/01/27 01:41:22;;;;;;;19.70;12.90;;;8.60;1.00;;;;;;5074746;28;20028;-60
2023/01/27 01:43:49;;;;;;;19.10;11.87;;;8.60;1.00;;;;;;5073381;28;20013;-60
2023/01/27 01:46:16;;;;;;;17.87;12.77;;;8.60;1.00;;;;;;5074095;28;20033;-60
2023/01/27 01:48:50;;;;;;;18.83;12.50;;;8.60;1.00;;;;;;5074347;28;20032;-60
2023/01/27 01:54:47;;;;;;;21.07;13.03;;;8.60;1.00;;;;;;5068242;28;20512;-60
2023/01/27 01:57:20;;;;;;;;;;;8.60;1.00;;;;;;5074775;28;20441;-60
2023/01/27 01:59:51;;;;;;;19.87;12.70;;;8.50;1.00;;;;;;5074054;28;19923;-60
2023/01/27 02:02:20;;;;;;;17.17;11.70;;;8.60;1.00;;;;;;5074240;28;20055;-59
2023/01/27 02:04:56;;;;;;;16.53;11.03;;;8.60;1.00;;;;;;5060489;28;20490;-60
2023/01/27 02:07:30;;;;;;;20.90;12.13;;;8.60;1.00;;;;;;5060774;28;20093;-63
2023/01/27 02:09:55;;;;;;;15.47;11.27;;;8.70;1.00;;;;;;5074058;28;20028;-60
2023/01/27 02:12:21;;;;;;;18.07;12.10;;;8.60;1.00;;;;;;5073815;28;20039;-60
2023/01/27 02:14:47;;;;;;;19.27;12.87;;;8.50;1.00;;;;;;5073890;28;20104;-60
2023/01/27 02:17:14;;;;;;;18.80;12.33;;;8.50;1.00;;;;;;5073722;28;20067;-60
2023/01/27 02:19:54;;;;;;;22.77;15.37;;;8.60;1.00;;;;;;5073761;28;20453;-61
2023/01/27 02:22:41;;;;;;;30.53;18.77;;;8.70;1.00;;;;;;5072261;28;20035;-60
2023/01/27 02:25:22;;;;;;;26.13;15.50;;;8.70;1.00;;;;;;5072703;28;20024;-59
2023/01/27 02:27:48;;;;;;;32.63;17.63;;;8.50;1.00;;;;;;5071570;28;20047;-60
2023/01/27 02:30:14;;;;;;;20.63;13.43;;;8.60;1.00;;;;;;5073132;28;20029;-61
2023/01/27 02:32:39;;;;;;;29.37;15.83;;;8.60;1.00;;;;;;5072714;28;20146;-60
2023/01/27 02:35:10;;;;;;;18.93;12.53;;;8.70;1.00;;;;;;5071303;28;20023;-60
2023/01/27 02:37:37;;;;;;;26.53;15.27;;;8.60;1.00;;;;;;5072420;28;20017;-60
2023/01/27 02:40:04;;;;;;;24.80;13.77;;;8.60;1.00;;;;;;5072929;28;20020;-60
2023/01/27 02:42:30;;;;;;;20.63;13.50;;;8.70;1.00;;;;;;5072596;28;20024;-60
2023/01/27 02:44:55;;;;;;;19.27;11.97;;;8.70;1.00;;;;;;5071487;28;20019;-60
2023/01/27 02:47:21;;;;;;;15.93;10.90;;;8.60;1.00;;;;;;5071683;28;20039;-60
2023/01/27 02:49:48;;;;;;;19.97;13.77;;;8.60;1.00;;;;;;5072432;28;20020;-60
2023/01/27 02:52:14;;;;;;;16.27;11.87;;;8.60;1.00;;;;;;5072334;28;20021;-60
2023/01/27 02:54:40;;;;;;;17.07;12.07;;;8.60;1.00;;;;;;5070857;28;20021;-60
2023/01/27 02:57:06;;;;;;;18.97;13.20;;;8.60;1.00;;;;;;5072631;28;20043;-61
2023/01/27 02:59:31;;;;;;;19.03;11.97;;;8.40;1.00;;;;;;5072189;28;20363;-61
2023/01/27 03:05:19;;;;;;;33.13;21.30;;;8.60;1.00;;;;;;5062096;28;20094;-60
2023/01/27 03:07:45;;;;;;;26.00;16.30;;;8.30;1.00;;;;;;5068362;28;20458;-64
2023/01/27 03:10:10;;;;;;;22.23;13.67;;;8.30;1.00;;;;;;5073197;28;20033;-61
2023/01/27 03:12:36;;;;;;;26.00;16.33;;;8.40;1.00;;;;;;5073068;28;20024;-60
2023/01/27 03:20:59;;;;;;;19.27;11.47;;;8.40;1.00;;;;;;5072804;28;20039;-60
2023/01/27 03:23:25;;;;;;;17.45;11.40;;;8.40;1.00;;;;;;5059467;28;20025;-59
2023/01/27 03:25:50;;;;;;;20.23;13.30;;;8.50;1.00;;;;;;5072386;28;20146;-60
2023/01/27 03:28:16;;;;;;;20.43;13.80;;;8.40;1.00;;;;;;5072608;28;20024;-60
2023/01/27 03:30:41;;;;;;;18.73;11.83;;;8.40;1.00;;;;;;5072256;28;20401;-60
2023/01/27 03:33:07;;;;;;;16.17;10.77;;;8.40;1.00;;;;;;5072502;28;20024;-60
2023/01/27 03:35:37;;;;;;;16.03;9.90;;;8.50;1.00;;;;;;5072397;28;20023;-60
2023/01/27 03:46:21;;;;;;;16.50;11.73;;;8.50;1.00;;;;;;5072818;28;20166;-60
2023/01/27 03:48:52;;;;;;;14.77;11.37;;;8.50;1.00;;;;;;5072373;28;20478;-60
2023/01/27 03:51:20;;;;;;;16.97;11.73;;;8.50;1.00;;;;;;5072480;28;20024;-61
2023/01/27 03:53:46;;;;;;;17.53;10.70;;;8.50;1.00;;;;;;5072616;28;20108;-60
2023/01/27 03:56:13;;;;;;;16.20;10.80;;;8.40;1.00;;;;;;5072264;28;20340;-61
2023/01/27 03:58:39;;;;;;;15.37;10.53;;;8.40;1.00;;;;;;5072126;28;20032;-60
2023/01/27 04:01:23;;;;;;;19.23;10.77;;;8.50;1.00;;;;;;5072043;28;20144;-60
2023/01/27 04:09:24;;;;;;;15.70;10.87;;;8.50;1.00;;;;;;5072600;28;20409;-60
2023/01/27 04:11:54;;;;;;;16.73;11.03;;;8.40;1.00;;;;;;5071824;28;20043;-60
2023/01/27 04:14:29;;;;;;;19.50;12.13;;;8.40;1.00;;;;;;5072333;28;20074;-59
2023/01/27 04:16:57;;;;;;;17.57;11.37;;;8.40;1.00;;;;;;5072370;28;20482;-59
2023/01/27 04:22:45;;;;;;;18.50;10.63;;;8.50;1.00;;;;;;5060690;28;20674;-60
2023/01/27 04:25:10;;;;;;;15.30;10.40;;;8.40;1.00;;;;;;5055311;28;20078;-59
2023/01/27 04:27:36;;;;;;;18.13;11.77;;;8.40;1.00;;;;;;5072014;28;20025;-61
2023/01/27 04:30:03;;;;;;;18.57;11.50;;;8.40;1.00;;;;;;5072169;28;20040;-61
2023/01/27 04:32:29;;;;;;;17.97;10.83;;;8.40;1.00;;;;;;5058292;28;20386;-60
2023/01/27 04:34:55;;;;;;;18.03;12.23;;;8.20;1.00;;;;;;5072101;28;20078;-60
2023/01/27 04:37:20;;;;;;;21.30;12.50;;;8.30;1.00;;;;;;5071625;28;20033;-61
2023/01/27 04:39:46;;;;;;;17.53;11.50;;;8.30;1.00;;;;;;5071989;28;20056;-60
2023/01/27 04:42:11;;;;;;;16.93;11.53;;;8.20;1.00;;;;;;5070447;28;20036;-60
2023/01/27 04:44:37;;;;;;;17.03;11.10;;;8.30;1.00;;;;;;5072050;28;20025;-60
2023/01/27 04:47:03;;;;;;;17.57;11.50;;;8.20;1.00;;;;;;5070577;28;20051;-60
2023/01/27 04:49:28;;;;;;;17.80;11.73;;;8.10;1.00;;;;;;5071733;28;20017;-60
2023/01/27 04:51:54;;;;;;;20.00;11.70;;;8.10;1.00;;;;;;5071802;28;20033;-60
2023/01/27 04:54:20;;;;;;;18.67;11.30;;;8.10;1.00;;;;;;5070290;28;20020;-60
2023/01/27 04:56:58;;;;;;;16.37;11.63;;;8.20;1.00;;;;;;5071900;28;20025;-60
2023/01/27 04:59:23;;;;;;;20.30;11.47;;;8.20;1.00;;;;;;5072584;28;20108;-60
2023/01/27 05:01:49;;;;;;;18.60;12.50;;;8.00;1.00;;;;;;5072008;28;20100;-60
2023/01/27 05:04:14;;;;;;;17.70;12.00;;;8.10;1.00;;;;;;5071596;28;20047;-60
2023/01/27 05:06:40;;;;;;;19.10;12.27;;;8.00;1.00;;;;;;5071863;28;20189;-60
2023/01/27 05:09:06;;;;;;;14.73;10.77;;;7.90;1.00;;;;;;5070107;28;20031;-60
2023/01/27 05:11:31;;;;;;;17.50;11.10;;;7.90;1.00;;;;;;5073838;28;20032;-61
2023/01/27 05:13:57;;;;;;;16.63;11.77;;;7.80;1.00;;;;;;5075335;28;20073;-60
2023/01/27 05:16:24;;;;;;;17.10;11.50;;;7.80;1.00;;;;;;5074981;28;20017;-60
2023/01/27 05:18:51;;;;;;;19.23;11.47;;;8.00;1.00;;;;;;5075337;28;20115;-60
2023/01/27 05:21:22;;;;;;;18.70;11.60;;;8.00;1.00;;;;;;5074949;28;20117;-60
2023/01/27 05:23:48;;;;;;;19.33;12.37;;;7.90;1.00;;;;;;5075512;28;20031;-60
2023/01/27 05:26:17;;;;;;;20.83;12.20;;;8.00;1.00;;;;;;5075011;28;20057;-60
2023/01/27 05:28:44;;;;;;;18.93;12.37;;;8.00;1.00;;;;;;5073365;28;20441;-60
2023/01/27 05:31:13;;;;;;;24.67;13.20;;;8.00;1.00;;;;;;5074853;28;20390;-59
2023/01/27 05:33:40;;;;;;;18.77;12.07;;;8.00;1.00;;;;;;5074868;28;20025;-59
2023/01/27 05:36:43;;;;;;;20.43;11.63;;;8.00;1.00;;;;;;5077003;28;20020;-60
2023/01/27 05:39:11;;;;;;;19.17;12.10;;;8.00;1.00;;;;;;5072153;28;20036;-60
2023/01/27 05:41:37;;;;;;;22.37;13.37;;;8.00;1.00;;;;;;5073377;28;20091;-60
2023/01/27 05:44:04;;;;;;;18.63;12.87;;;7.80;1.00;;;;;;5074617;28;20020;-61
2023/01/27 05:46:32;;;;;;;25.63;13.50;;;7.80;1.00;;;;;;5063921;28;20029;-60
2023/01/27 05:49:04;;;;;;;20.00;13.57;;;7.50;1.00;;;;;;5071569;28;20040;-61
2023/01/27 05:51:34;;;;;;;18.13;13.27;;;7.70;1.00;;;;;;5074597;28;20394;-61
2023/01/27 05:54:03;;;;;;;20.87;14.13;;;7.70;1.00;;;;;;5074730;28;20016;-62
2023/01/27 05:56:29;;;;;;;19.30;12.83;;;7.80;1.00;;;;;;5064353;28;20069;-61
2023/01/27 05:58:56;;;;;;;21.40;13.27;;;7.40;1.00;;;;;;5072664;28;20394;-60
2023/01/27 06:01:24;;;;;;;20.13;13.13;;;7.80;1.00;;;;;;5071800;28;20032;-61
2023/01/27 06:03:50;;;;;;;18.97;12.87;;;7.80;1.00;;;;;;5072068;28;20479;-60
2023/01/27 06:06:21;;;;;;;19.80;13.37;;;7.70;1.00;;;;;;5073084;28;20021;-60
2023/01/27 06:08:47;;;;;;;19.70;13.00;;;7.70;1.00;;;;;;5074307;28;20020;-61
2023/01/27 06:11:14;;;;;;;24.43;14.07;;;7.60;1.00;;;;;;5074216;28;20089;-61
2023/01/27 06:13:40;;;;;;;20.17;13.37;;;7.60;1.00;;;;;;5073844;28;20021;-61
2023/01/27 06:16:08;;;;;;;20.27;14.00;;;7.60;1.00;;;;;;5073932;28;20028;-61
2023/01/27 06:18:34;;;;;;;23.30;13.13;;;7.70;1.00;;;;;;5073752;28;20111;-61
2023/01/27 06:21:01;;;;;;;17.63;12.27;;;7.70;1.00;;;;;;5073426;28;20170;-62
2023/01/27 06:23:27;;;;;;;23.27;12.57;;;7.80;1.00;;;;;;5072656;28;20028;-61
2023/01/27 06:25:54;;;;;;;20.93;13.97;;;7.70;1.00;;;;;;5073530;28;20145;-61
2023/01/27 06:28:20;;;;;;;21.70;13.53;;;7.70;1.00;;;;;;5073552;28;20478;-61
2023/01/27 06:30:46;;;;;;;18.63;13.33;;;7.70;1.00;;;;;;5073670;28;20029;-61
2023/01/27 06:33:12;;;;;;;21.10;13.27;;;7.70;1.00;;;;;;5073689;28;20551;-61
2023/01/27 06:35:39;;;;;;;20.07;13.27;;;7.80;1.00;;;;;;5073640;28;20449;-61
2023/01/27 06:38:07;;;;;;;21.53;13.40;;;7.70;1.00;;;;;;5073561;28;20024;-61
2023/01/27 06:40:34;;;;;;;24.60;13.70;;;7.60;1.00;;;;;;5073432;28;20044;-61
2023/01/27 06:43:00;;;;;;;21.37;13.07;;;7.40;1.00;;;;;;5073671;28;20047;-62
2023/01/27 06:45:26;;;;;;;21.27;13.47;;;7.60;1.00;;;;;;5073614;28;20432;-61
2023/01/27 06:47:59;;;;;;;20.77;12.37;;;7.70;1.00;;;;;;5073428;28;20492;-61
2023/01/27 06:50:27;;;;;;;22.47;13.00;;;7.70;1.00;;;;;;5073534;28;20491;-61
2023/01/27 06:52:59;;;;;;;22.20;13.37;;;7.80;1.00;;;;;;5073470;28;20116;-61
2023/01/27 06:55:24;;;;;;;23.17;13.57;;;7.80;1.00;;;;;;5060390;28;20367;-61
2023/01/27 06:57:51;;;;;;;18.90;12.40;;;7.70;1.00;;;;;;5068150;28;20057;-61
2023/01/27 07:03:38;;;;;;;24.50;14.13;;;7.80;1.00;;;;;;5063902;28;20195;-61
2023/01/27 07:06:04;;;;;;;23.43;13.23;;;7.70;1.00;;;;;;5072895;28;20096;-61
2023/01/27 07:08:30;;;;;;;21.03;12.87;;;7.60;1.00;;;;;;5072723;28;20028;-61
2023/01/27 07:10:55;;;;;;;19.43;13.00;;;7.60;1.00;;;;;;5071775;28;20044;-61
2023/01/27 07:13:21;;;;;;;22.53;13.90;;;7.70;1.00;;;;;;5072714;28;20243;-61
2023/01/27 07:15:52;;;;;;;21.30;13.57;;;7.70;1.00;;;;;;5073957;28;20025;-61
2023/01/27 07:18:18;;;;;;;21.57;13.63;;;7.80;1.00;;;;;;5072970;28;20025;-60
2023/01/27 07:20:44;;;;;;;19.27;13.60;;;7.80;1.00;;;;;;5072981;28;20496;-61
2023/01/27 07:23:10;;;;;;;21.30;13.27;;;7.90;1.00;;;;;;5075699;28;20103;-61
2023/01/27 07:25:35;;;;;;;21.77;13.20;;;7.60;1.00;;;;;;5073258;28;20056;-61
2023/01/27 07:28:01;;;;;;;20.10;13.40;;;7.60;1.00;;;;;;5072988;28;20365;-61
2023/01/27 07:30:28;;;;;;;20.43;13.90;;;7.70;1.00;;;;;;5072814;28;20482;-61
2023/01/27 07:32:54;;;;;;;21.87;13.37;;;7.80;1.00;;;;;;5072214;28;20044;-61
2023/01/27 07:35:21;;;;;;;21.20;13.70;;;7.60;1.00;;;;;;5071209;28;20392;-61
2023/01/27 07:37:46;;;;;;;25.83;14.17;;;7.70;1.00;;;;;;5072627;28;20021;-61
2023/01/27 07:40:12;;;;;;;20.03;13.07;;;7.50;1.00;;;;;;5072604;28;20031;-63
2023/01/27 07:42:39;;;;;;;20.30;13.07;;;7.70;1.00;;;;;;5074983;28;20037;-61
2023/01/27 07:45:05;;;;;;;19.63;13.50;;;7.90;1.00;;;;;;5072511;28;20035;-61
2023/01/27 07:47:30;;;;;;;20.13;13.13;;;7.80;1.00;;;;;;5071926;28;20028;-61
2023/01/27 07:49:56;;;;;;;22.50;13.53;;;8.00;1.00;;;;;;5072662;28;20319;-61
2023/01/27 07:52:22;;;;;;;20.63;12.70;;;7.80;1.00;;;;;;5059322;28;20032;-61
2023/01/27 07:54:48;;;;;;;21.67;13.10;;;7.90;1.00;;;;;;5072512;28;20032;-61
2023/01/27 07:57:13;;;;;;;20.53;12.87;;;8.00;1.00;;;;;;5072312;28;20139;-61
2023/01/27 07:59:39;;;;;;;22.50;13.90;;;7.80;1.00;;;;;;5072717;28;20096;-61
2023/01/27 08:02:05;;;;;;;20.17;12.90;;;7.90;1.00;;;;;;5072535;28;20097;-61
2023/01/27 08:04:31;;;;;;;22.23;13.57;;;7.80;1.00;;;;;;5072419;28;20017;-61
2023/01/27 08:06:56;;;;;;;22.27;14.33;;;7.70;1.00;;;;;;5072021;28;20455;-61
2023/01/27 08:09:22;;;;;;;19.17;13.93;;;7.50;1.00;;;;;;5072421;28;20097;-62
2023/01/27 08:11:48;;;;;;;23.63;14.23;;;7.80;1.00;;;;;;5072243;28;20064;-60
2023/01/27 08:14:13;;;;;;;18.43;12.43;;;7.90;1.00;;;;;;5072113;28;20027;-60
2023/01/27 08:16:39;;;;;;;20.40;13.03;;;8.00;1.00;;;;;;5072359;28;20111;-60
2023/01/27 08:19:04;;;;;;;24.07;14.47;;;8.10;1.00;;;;;;5071914;28;20052;-60
2023/01/27 08:21:31;;;;;;;25.43;15.67;;;8.10;1.00;;;;;;5063863;28;20029;-61
2023/01/27 08:23:58;;;;;;;23.47;13.67;;;7.90;1.00;;;;;;5068407;28;20025;-62
2023/01/27 08:26:24;;;;;;;28.10;13.87;;;7.90;1.00;;;;;;5071802;28;20037;-62
2023/01/27 08:28:50;;;;;;;22.20;14.30;;;7.70;1.00;;;;;;5071818;28;20021;-62
2023/01/27 08:31:16;;;;;;;20.97;13.90;;;7.80;1.00;;;;;;5071881;28;20068;-62
2023/01/27 08:33:44;;;;;;;23.70;13.33;;;7.90;1.00;;;;;;5071964;28;20052;-62
2023/01/27 08:36:13;;;;;;;25.40;14.27;;;8.00;1.00;;;;;;5071983;28;20028;-62
2023/01/27 08:38:39;;;;;;;21.03;14.00;;;8.00;1.00;;;;;;5070431;28;20401;-62
2023/01/27 08:41:08;;;;;;;19.27;12.97;;;8.20;1.00;;;;;;5069792;28;20023;-62
2023/01/27 08:43:34;;;;;;;18.33;12.40;;;8.10;1.00;;;;;;5061975;28;20025;-62
2023/01/27 08:46:00;;;;;;;21.00;13.10;;;8.20;1.00;;;;;;5074575;28;20027;-62
2023/01/27 08:48:27;;;;;;;24.00;13.67;;;8.10;1.00;;;;;;5075807;28;20074;-62
2023/01/27 08:50:55;;;;;;;20.37;12.33;;;8.20;1.00;;;;;;5075582;28;20051;-62
2023/01/27 08:53:21;;;;;;;20.83;12.23;;;8.30;1.00;;;;;;5075687;28;20023;-62
2023/01/27 08:55:46;;;;;;;18.73;13.13;;;8.40;1.00;;;;;;5075575;28;20545;-62
2023/01/27 08:58:12;;;;;;;18.17;12.70;;;8.30;1.00;;;;;;5075322;28;20027;-62
2023/01/27 09:00:37;;;;;;;20.83;12.80;;;8.10;1.00;;;;;;5075669;28;20045;-63
2023/01/27 09:03:03;;;;;;;21.17;13.70;;;8.20;1.00;;;;;;5075504;28;20115;-62
2023/01/27 09:05:29;;;;;;;19.17;12.23;;;8.20;1.00;;;;;;5075431;28;20428;-62
2023/01/27 09:07:54;;;;;;;19.57;12.87;;;8.30;1.00;;;;;;5071255;28;20020;-62
2023/01/27 09:10:20;;;;;;;24.30;12.60;;;8.10;1.00;;;;;;5075030;28;20397;-62
2023/01/27 09:12:45;;;;;;;19.03;11.83;;;8.10;1.00;;;;;;5075231;28;20021;-62
2023/01/27 09:15:13;;;;;;;20.60;13.00;;;8.30;1.00;;;;;;5073642;28;20020;-62
2023/01/27 09:17:39;;;;;;;20.03;13.43;;;8.30;1.00;;;;;;5074806;28;20509;-61
2023/01/27 09:20:05;;;;;;;17.83;11.07;;;8.40;1.00;;;;;;5075053;28;20039;-62
2023/01/27 09:22:31;;;;;;;17.73;12.17;;;8.40;1.00;;;;;;5073180;28;20019;-64
2023/01/27 09:24:57;;;;;;;19.37;12.77;;;8.60;1.00;;;;;;5074984;28;20032;-64
2023/01/27 09:27:23;;;;;;;19.40;12.60;;;8.50;1.00;;;;;;5074308;28;20121;-65
2023/01/27 09:29:48;;;;;;;19.60;12.50;;;8.50;1.00;;;;;;5074697;28;20489;-64
2023/01/27 09:32:14;;;;;;;19.37;13.17;;;8.50;1.00;;;;;;5074386;28;20029;-64
2023/01/27 09:38:04;;;;;;;16.27;11.20;;;8.50;1.00;;;;;;5057740;28;20171;-65
2023/01/27 09:40:59;;;;;;;16.80;10.80;;;8.50;1.00;;;;;;5067482;28;20023;-66
2023/01/27 09:43:43;;;;;;;16.30;11.30;;;8.40;1.00;;;;;;5056852;28;20029;-63
2023/01/27 09:46:46;;;;;;;14.90;11.17;;;8.50;1.00;;;;;;5074424;28;20024;-63
2023/01/27 09:49:39;;;;;;;20.00;11.33;;;8.40;1.00;;;;;;5065005;28;20470;-63
2023/01/27 09:52:14;;;;;;;19.57;12.10;;;8.50;1.00;;;;;;5073538;28;20068;-56
2023/01/27 09:54:55;;;;;;;19.05;12.35;;;8.60;1.00;;;;;;5070877;28;20035;-57
2023/01/27 09:57:34;;;;;;;16.13;11.27;;;8.70;1.00;;;;;;5074226;28;20119;-58
2023/01/27 10:00:31;;;;;;;16.93;11.37;;;8.80;1.00;;;;;;5073672;28;20024;-59
2023/01/27 10:03:23;;;;;;;16.83;10.17;;;8.90;1.00;;;;;;5074465;28;20103;-59
2023/01/27 10:06:04;;;;;;;16.03;9.87;;;8.90;1.00;;;;;;5066411;28;20083;-59
2023/01/27 10:08:56;;;;;;;19.53;10.20;;;8.90;1.00;;;;;;5073945;28;20073;-59
2023/01/27 10:14:55;;;;;;;17.83;9.67;;;8.90;1.00;;;;;;5067317;28;20024;-60
2023/01/27 10:17:57;;;;;;;15.27;9.65;;;9.10;1.00;;;;;;5073870;28;20489;-60
2023/01/27 10:20:29;;;;;;;18.63;10.53;;;9.20;1.00;;;;;;5073813;28;20032;-60
2023/01/27 10:23:17;;;;;;;18.63;10.33;;;9.00;1.00;;;;;;5073452;28;20085;-58
2023/01/27 10:26:24;;;;;;;21.00;10.63;;;8.90;1.00;;;;;;5073690;28;20083;-59
2023/01/27 10:28:55;;;;;;;14.50;9.47;;;9.00;1.00;;;;;;5074008;28;20024;-60
2023/01/27 10:31:31;;;;;;;18.60;11.30;;;9.20;1.00;;;;;;5072352;28;20043;-59
2023/01/27 10:34:06;;;;;;;13.23;9.07;;;9.30;1.00;;;;;;5073184;28;20033;-59
2023/01/27 10:37:03;;;;;;;16.13;10.97;;;9.30;1.00;;;;;;5073261;28;20024;-60
2023/01/27 10:39:40;;;;;;;18.23;9.27;;;9.30;1.00;;;;;;5072127;28;20025;-58
2023/01/27 10:42:09;;;;;;;15.10;9.17;;;9.20;1.00;;;;;;5060468;28;20119;-60
2023/01/27 10:44:59;;;;;;;14.00;9.40;;;9.30;1.00;;;;;;5071981;28;20021;-59
2023/01/27 10:47:58;;;;;;;13.07;8.70;;;9.40;1.00;;;;;;5072654;28;20024;-59
2023/01/27 10:50:33;;;;;;;15.03;9.47;;;9.20;1.00;;;;;;5047766;28;20567;-60
2023/01/27 10:53:13;;;;;;;14.50;8.68;;;9.40;1.00;;;;;;5073601;28;20056;-59
2023/01/27 10:55:42;;;;;;;18.37;10.20;;;9.30;1.00;;;;;;5077138;28;20024;-59
2023/01/27 10:58:15;;;;;;;14.27;9.63;;;9.40;1.00;;;;;;5075325;28;20059;-59
2023/01/27 11:00:44;;;;;;;13.20;9.73;;;9.40;1.00;;;;;;5072364;28;20552;-60
2023/01/27 11:03:32;;;;;;;13.63;8.97;;;9.50;1.00;;;;;;5071566;28;20514;-60
2023/01/27 11:06:15;;;;;;;12.47;8.10;;;9.50;1.00;;;;;;5073409;28;20021;-60
2023/01/27 11:08:45;;;;;;;11.87;8.60;;;9.30;1.00;;;;;;5067609;28;20032;-59
2023/01/27 11:14:23;;;;;;;14.87;7.73;;;9.50;1.00;;;;;;5073115;28;20079;-60
2023/01/27 11:17:24;;;;;;;13.50;9.33;;;9.40;1.00;;;;;;5073074;28;20089;-58
2023/01/27 11:20:22;;;;;;;18.57;10.97;;;9.30;1.00;;;;;;5060464;28;20032;-60
2023/01/27 11:22:58;;;;;;;14.73;9.40;;;9.40;1.00;;;;;;5073037;28;20074;-60
2023/01/27 11:25:53;;;;;;;12.33;7.70;;;9.20;1.00;;;;;;5071639;28;20025;-60
2023/01/27 11:28:29;;;;;;;10.25;7.30;;;9.30;1.00;;;;;;5073174;28;20028;-61
2023/01/27 11:31:34;;;;;;;11.67;8.20;;;9.40;1.00;;;;;;5071640;28;20552;-60
2023/01/27 11:34:12;;;;;;;11.97;8.37;;;9.20;1.00;;;;;;5073172;28;20040;-60
2023/01/27 11:36:37;;;;;;;10.87;7.93;;;9.20;1.00;;;;;;5061833;28;20021;-60
2023/01/27 11:39:05;;;;;;;15.10;8.97;;;9.30;1.00;;;;;;5072877;28;20543;-60
2023/01/27 11:44:55;;;;;;;11.80;8.40;;;9.40;1.00;;;;;;5061716;28;20445;-59
2023/01/27 11:47:25;;;;;;;12.40;7.87;;;9.50;1.00;;;;;;5069135;28;20028;-60
2023/01/27 11:49:53;;;;;;;13.57;9.77;;;9.60;1.00;;;;;;5064810;28;20492;-60
2023/01/27 11:52:22;;;;;;;14.07;8.97;;;9.50;1.00;;;;;;5068199;28;20036;-60
2023/01/27 11:54:54;;;;;;;13.30;8.13;;;9.40;1.00;;;;;;5069098;28;20038;-59
2023/01/27 11:57:25;;;;;;;11.80;7.40;;;9.60;1.00;;;;;;5068816;28;20490;-59
2023/01/27 11:59:59;;;;;;;12.80;8.43;;;9.60;1.00;;;;;;5072339;28;20120;-60
2023/01/27 12:02:42;;;;;;;11.70;7.93;;;9.60;1.00;;;;;;5072007;28;20056;-53
2023/01/27 12:05:30;;;;;;;13.67;8.10;;;9.40;1.00;;;;;;5072254;28;20069;-52
2023/01/27 12:08:00;;;;;;;11.23;8.03;;;9.30;1.00;;;;;;5072010;28;20108;-52
2023/01/27 12:10:38;;;;;;;15.37;9.50;;;9.40;1.00;;;;;;5071909;28;20064;-54
2023/01/27 12:13:15;;;;;;;14.03;8.63;;;9.50;1.00;;;;;;5073547;28;20536;-52
2023/01/27 12:16:07;;;;;;;16.57;8.50;;;9.40;1.00;;;;;;5061923;28;20028;-53
2023/01/27 12:18:45;;;;;;;14.83;8.53;;;9.40;1.00;;;;;;5070398;28;20043;-56
2023/01/27 12:21:12;;;;;;;14.97;8.83;;;9.30;1.00;;;;;;5076183;28;20024;-51
2023/01/27 12:23:50;;;;;;;11.20;8.50;;;9.50;1.00;;;;;;5075641;28;20032;-50
2023/01/27 12:26:29;;;;;;;12.77;7.53;;;9.50;1.00;;;;;;5080637;28;20120;-54
2023/01/27 12:28:59;;;;;;;11.20;7.70;;;9.50;1.00;;;;;;5075976;28;20023;-55
2023/01/27 12:31:30;;;;;;;12.30;7.90;;;9.40;1.00;;;;;;5076034;28;20040;-55
2023/01/27 12:34:07;;;;;;;11.50;7.47;;;9.30;1.00;;;;;;5075794;28;20028;-54
2023/01/27 12:36:41;;;;;;;12.07;7.63;;;9.40;1.00;;;;;;5075882;28;20107;-53
2023/01/27 12:39:26;;;;;;;10.27;7.60;;;9.20;1.00;;;;;;5075836;28;20035;-54
2023/01/27 12:41:52;;;;;;;11.90;7.30;;;9.30;1.00;;;;;;5075871;28;20031;-54
2023/01/27 12:44:21;;;;;;;13.07;8.30;;;9.30;1.00;;;;;;5075416;28;20385;-52
2023/01/27 12:47:00;;;;;;;15.83;8.67;;;9.20;1.00;;;;;;5075568;28;20494;-56
2023/01/27 12:49:36;;;;;;;11.90;7.63;;;9.30;1.00;;;;;;5075419;28;20028;-57
2023/01/27 12:52:04;;;;;;;18.43;8.00;;;9.20;1.00;;;;;;5075587;28;20032;-53
2023/01/27 12:54:31;;;;;;;9.93;7.20;;;9.30;1.00;;;;;;5075055;28;20038;-55
2023/01/27 12:57:10;;;;;;;12.13;8.07;;;9.30;1.00;;;;;;5075336;28;20089;-55
2023/01/27 12:59:51;;;;;;;11.10;7.57;;;9.40;1.00;;;;;;5074924;28;20021;-53
2023/01/27 13:02:31;;;;;;;11.73;7.20;;;9.30;1.00;;;;;;5075152;28;20025;-55
2023/01/27 13:05:01;;;;;;;11.90;8.40;;;9.30;1.00;;;;;;5074935;28;20108;-55
2023/01/27 13:07:29;;;;;;;13.43;8.10;;;9.30;1.00;;;;;;5073722;28;20470;-54
2023/01/27 13:10:01;;;;;;;14.20;8.93;;;9.30;1.00;;;;;;5073765;28;20071;-53
2023/01/27 13:12:28;;;;;;;12.83;7.97;;;9.20;1.00;;;;;;5075133;28;20405;-53
2023/01/27 13:15:13;;;;;;;13.17;7.77;;;9.30;1.00;;;;;;5074970;28;20016;-55
2023/01/27 13:17:44;;;;;;;10.85;7.30;;;9.30;1.00;;;;;;5074599;28;20025;-55
2023/01/27 13:20:34;;;;;;;13.90;8.07;;;9.40;1.00;;;;;;5075000;28;20024;-53
2023/01/27 13:23:17;;;;;;;12.77;8.40;;;9.40;1.00;;;;;;5062899;28;20108;-53
2023/01/27 13:26:10;;;;;;;11.27;7.17;;;9.20;1.00;;;;;;5075950;28;20048;-53
2023/01/27 13:28:55;;;;;;;12.80;7.73;;;9.30;1.00;;;;;;5079433;28;20340;-55
2023/01/27 13:31:49;;;;;;;12.13;7.20;;;9.10;1.00;;;;;;5076701;28;20047;-54
2023/01/27 13:34:22;;;;;;;11.23;6.87;;;9.20;1.00;;;;;;5077290;28;20028;-54
2023/01/27 13:37:15;;;;;;;10.37;6.73;;;9.30;1.00;;;;;;5075017;28;20019;-56
2023/01/27 13:40:05;;;;;;;14.37;8.13;;;9.30;1.00;;;;;;5061221;28;20077;-53
2023/01/27 13:42:42;;;;;;;12.13;6.97;;;9.20;1.00;;;;;;5072530;28;20367;-52
2023/01/27 13:46:06;;;;;;;11.07;7.53;;;9.20;1.00;;;;;;5074231;28;20024;-52
2023/01/27 13:48:36;;;;;;;11.73;6.53;;;9.30;1.00;;;;;;5020483;28;20033;-55
2023/01/27 13:51:04;;;;;;;10.10;7.33;;;9.20;1.00;;;;;;5019726;28;20063;-55
2023/01/27 13:53:30;;;;;;;9.77;7.30;;;9.40;1.00;;;;;;5059545;28;20036;-55
2023/01/27 13:56:21;;;;;;;10.37;7.13;;;9.30;1.00;;;;;;5074242;28;20127;-55
2023/01/27 13:59:02;;;;;;;14.43;8.63;;;9.40;1.00;;;;;;5074233;28;20056;-57
2023/01/27 14:01:47;;;;;;;9.93;7.23;;;9.50;1.00;;;;;;5074122;28;20029;-53
2023/01/27 14:04:45;;;;;;;11.05;8.15;;;9.50;1.00;;;;;;5074285;28;20534;-53
2023/01/27 14:07:25;;;;;;;15.10;8.10;;;9.40;1.00;;;;;;5062855;28;20024;-55